Terminal Aerodrome Forecast
Issued by NWS

Home | Current Version | Previous Version | Text Only | Print | Product List | Glossary On
Versions: 1 2 3 4 5 6 7 8 9 10 11 12 13 14 15 16 17 18
000
FTUS43 KBIS 091130
TAFMOT
TAF
KMOT 091130Z 0912/1012 00000KT P6SM OVC040
     FM091800 00000KT P6SM OVC025
     FM092200 10005KT P6SM OVC020
     FM100000 10006KT P6SM VCSH OVC015
     FM100200 12007KT 2SM -SN OVC010
     FM100600 13008KT 2SM -SN OVC008=

USA.gov is the U.S. government's official web portal to all federal, state and local government web resources and services.